Time,TemperatureF,DewpointF,PressureIn,WindDirection,WindDirectionDegrees,WindSpeedMPH,WindSpeedGustMPH,Humidity,HourlyPrecipIn,Conditions,Clouds,dailyrainin,SolarRadiationWatts/m^2,SoftwareType,DateUTC
2013-01-30 00:11:00,47.0,33.0,-100.00,ESE,105,14.0,17.0,59,0.00,,,0.00,0.000000,,2013-01-30 08:11:00,
2013-01-30 00:21:00,47.0,33.0,-100.00,ESE,105,14.0,17.0,59,0.00,,,0.00,0.000000,,2013-01-30 08:21:00,
2013-01-30 00:32:00,47.0,33.0,-100.00,ESE,105,14.0,17.0,59,0.00,,,0.00,0.000000,,2013-01-30 08:32:00,
2013-01-30 00:41:00,47.0,33.0,-100.00,ESE,105,14.0,17.0,59,0.00,,,0.00,0.000000,,2013-01-30 08:41:00,
2013-01-30 01:11:00,50.0,34.0,-100.00,ESE,106,13.0,19.0,53,0.00,,,0.00,0.000000,,2013-01-30 09:11:00,
2013-01-30 02:01:00,51.0,31.0,-100.00,East,96,17.0,23.0,47,-99.99,,,0.00,0.000000,,2013-01-30 10:01:00,
2013-01-30 03:11:00,50.0,32.0,-100.00,East,88,13.0,25.0,49,-99.99,,,0.00,0.000000,,2013-01-30 11:11:00,
2013-01-30 03:22:00,50.0,32.0,-100.00,East,88,13.0,25.0,49,-99.99,,,0.00,0.000000,,2013-01-30 11:22:00,
2013-01-30 04:12:00,54.0,30.0,-100.00,East,92,20.0,26.0,39,-99.99,,,0.00,0.000000,,2013-01-30 12:12:00,
2013-01-30 04:22:00,54.0,30.0,-100.00,East,92,20.0,26.0,39,-99.99,,,0.00,0.000000,,2013-01-30 12:22:00,
2013-01-30 05:12:00,55.0,29.0,-100.00,East,91,17.0,30.0,36,-99.99,,,0.00,0.000000,,2013-01-30 13:12:00,
2013-01-30 05:22:00,55.0,29.0,-100.00,East,91,17.0,30.0,36,-99.99,,,0.00,0.000000,,2013-01-30 13:22:00,
2013-01-30 06:11:00,55.0,29.0,-100.00,East,95,12.0,22.0,36,-99.99,,,0.00,1.000000,,2013-01-30 14:11:00,
2013-01-30 06:22:00,55.0,29.0,-100.00,East,95,12.0,22.0,36,-99.99,,,0.00,1.000000,,2013-01-30 14:22:00,
2013-01-30 07:12:00,51.0,34.0,-100.00,SSW,199,3.0,17.0,51,-99.99,,,0.00,1.000000,,2013-01-30 15:12:00,
2013-01-30 07:23:00,51.0,34.0,-100.00,SSW,199,3.0,17.0,51,-99.99,,,0.00,1.000000,,2013-01-30 15:23:00,
2013-01-30 07:33:00,51.0,34.0,-100.00,SSW,199,3.0,17.0,51,-99.99,,,0.00,1.000000,,2013-01-30 15:33:00,
2013-01-30 08:12:00,49.0,31.0,-100.00,ENE,69,0.0,9.0,50,-99.99,,,0.00,21.000000,,2013-01-30 16:12:00,
2013-01-30 08:22:00,49.0,31.0,-100.00,ENE,69,0.0,9.0,50,-99.99,,,0.00,21.000000,,2013-01-30 16:22:00,
2013-01-30 08:32:00,49.0,31.0,-100.00,ENE,69,0.0,9.0,50,-99.99,,,0.00,21.000000,,2013-01-30 16:32:00,
2013-01-30 08:42:00,49.0,31.0,-100.00,ENE,69,0.0,9.0,50,-99.99,,,0.00,21.000000,,2013-01-30 16:42:00,
2013-01-30 09:12:00,55.0,31.0,-100.00,East,95,11.0,17.0,39,0.00,,,0.00,216.000000,,2013-01-30 17:12:00,
2013-01-30 09:22:00,55.0,31.0,-100.00,East,95,11.0,17.0,39,0.00,,,0.00,216.000000,,2013-01-30 17:22:00,
2013-01-30 09:32:00,55.0,31.0,-100.00,East,95,11.0,17.0,39,0.00,,,0.00,216.000000,,2013-01-30 17:32:00,
2013-01-30 10:12:00,58.0,29.0,-100.00,East,87,18.0,25.0,33,0.00,,,0.00,395.000000,,2013-01-30 18:12:00,
2013-01-30 10:22:00,58.0,29.0,-100.00,East,87,18.0,25.0,33,0.00,,,0.00,395.000000,,2013-01-30 18:22:00,
2013-01-30 10:33:00,58.0,29.0,-100.00,East,87,18.0,25.0,33,0.00,,,0.00,395.000000,,2013-01-30 18:33:00,
2013-01-30 10:42:00,58.0,29.0,-100.00,East,87,18.0,25.0,33,0.00,,,0.00,395.000000,,2013-01-30 18:42:00,
2013-01-30 11:12:00,60.0,32.0,-100.00,ENE,58,12.0,24.0,34,0.00,,,0.00,526.000000,,2013-01-30 19:12:00,
2013-01-30 11:22:00,60.0,32.0,-100.00,ENE,58,12.0,24.0,34,0.00,,,0.00,526.000000,,2013-01-30 19:22:00,
2013-01-30 11:32:00,60.0,32.0,-100.00,ENE,58,12.0,24.0,34,0.00,,,0.00,526.000000,,2013-01-30 19:32:00,
2013-01-30 11:42:00,60.0,32.0,-100.00,ENE,58,12.0,24.0,34,0.00,,,0.00,526.000000,,2013-01-30 19:42:00,
2013-01-30 12:11:00,62.0,30.0,-100.00,NE,50,7.0,18.0,30,0.00,,,0.00,606.000000,,2013-01-30 20:11:00,
2013-01-30 12:22:00,62.0,30.0,-100.00,NE,50,7.0,18.0,30,0.00,,,0.00,606.000000,,2013-01-30 20:22:00,
2013-01-30 12:33:00,62.0,30.0,-100.00,NE,50,7.0,18.0,30,0.00,,,0.00,606.000000,,2013-01-30 20:33:00,
2013-01-30 12:42:00,62.0,30.0,-100.00,NE,50,7.0,18.0,30,0.00,,,0.00,606.000000,,2013-01-30 20:42:00,
2013-01-30 13:12:00,65.0,29.0,-100.00,NE,41,5.0,12.0,26,0.00,,,0.00,628.000000,,2013-01-30 21:12:00,
2013-01-30 13:22:00,65.0,29.0,-100.00,NE,41,5.0,12.0,26,0.00,,,0.00,628.000000,,2013-01-30 21:22:00,
2013-01-30 13:32:00,65.0,29.0,-100.00,NE,41,5.0,12.0,26,0.00,,,0.00,628.000000,,2013-01-30 21:32:00,
2013-01-30 13:42:00,65.0,29.0,-100.00,NE,41,5.0,12.0,26,0.00,,,0.00,628.000000,,2013-01-30 21:42:00,
2013-01-30 14:11:00,65.0,35.0,-100.00,WSW,250,7.0,14.0,33,0.00,,,0.00,583.000000,,2013-01-30 22:11:00,
2013-01-30 14:22:00,65.0,35.0,-100.00,WSW,250,7.0,14.0,33,0.00,,,0.00,583.000000,,2013-01-30 22:22:00,
2013-01-30 14:32:00,65.0,35.0,-100.00,WSW,250,7.0,14.0,33,0.00,,,0.00,583.000000,,2013-01-30 22:32:00,
2013-01-30 14:41:00,65.0,35.0,-100.00,WSW,250,7.0,14.0,33,0.00,,,0.00,583.000000,,2013-01-30 22:41:00,
2013-01-30 15:12:00,64.0,40.0,-100.00,West,270,11.0,17.0,41,0.00,,,0.00,483.000000,,2013-01-30 23:12:00,
2013-01-30 15:22:00,64.0,40.0,-100.00,West,270,11.0,17.0,41,0.00,,,0.00,483.000000,,2013-01-30 23:22:00,
2013-01-30 15:32:00,64.0,40.0,-100.00,West,270,11.0,17.0,41,0.00,,,0.00,483.000000,,2013-01-30 23:32:00,
2013-01-30 15:42:00,64.0,40.0,-100.00,West,270,11.0,17.0,41,0.00,,,0.00,483.000000,,2013-01-30 23:42:00,
2013-01-30 16:11:00,62.0,35.0,-100.00,West,267,13.0,17.0,36,0.00,,,-99.99,337.000000,,2013-01-31 00:11:00,
2013-01-30 16:21:00,62.0,35.0,-100.00,West,267,13.0,17.0,36,0.00,,,-99.99,337.000000,,2013-01-31 00:21:00,
2013-01-30 16:32:00,62.0,35.0,-100.00,West,267,13.0,17.0,36,0.00,,,-99.99,337.000000,,2013-01-31 00:32:00,
2013-01-30 16:42:00,62.0,35.0,-100.00,West,267,13.0,17.0,36,0.00,,,-99.99,337.000000,,2013-01-31 00:42:00,
2013-01-30 17:11:00,60.0,34.0,-100.00,WSW,254,12.0,16.0,37,0.00,,,0.00,162.000000,,2013-01-31 01:11:00,
2013-01-30 17:21:00,60.0,34.0,-100.00,WSW,254,12.0,16.0,37,0.00,,,0.00,162.000000,,2013-01-31 01:21:00,
2013-01-30 17:31:00,60.0,34.0,-100.00,WSW,254,12.0,16.0,37,0.00,,,0.00,162.000000,,2013-01-31 01:31:00,
2013-01-30 17:41:00,60.0,34.0,-100.00,WSW,254,12.0,16.0,37,0.00,,,0.00,162.000000,,2013-01-31 01:41:00,
2013-01-30 18:11:00,58.0,31.0,-100.00,WSW,249,10.0,16.0,35,0.00,,,0.00,18.000000,,2013-01-31 02:11:00,
2013-01-30 18:21:00,58.0,31.0,-100.00,WSW,249,10.0,16.0,35,0.00,,,0.00,18.000000,,2013-01-31 02:21:00,
2013-01-30 18:32:00,58.0,31.0,-100.00,WSW,249,10.0,16.0,35,0.00,,,0.00,18.000000,,2013-01-31 02:32:00,
2013-01-30 18:41:00,58.0,31.0,-100.00,WSW,249,10.0,16.0,35,0.00,,,0.00,18.000000,,2013-01-31 02:41:00,
2013-01-30 19:11:00,57.0,28.0,-100.00,WSW,240,8.0,15.0,33,0.00,,,0.00,1.000000,,2013-01-31 03:11:00,
2013-01-30 19:21:00,57.0,28.0,-100.00,WSW,240,8.0,15.0,33,0.00,,,0.00,1.000000,,2013-01-31 03:21:00,
2013-01-30 20:11:00,57.0,33.0,-100.00,SW,231,11.0,13.0,40,0.00,,,0.00,0.000000,,2013-01-31 04:11:00,
2013-01-30 20:22:00,57.0,33.0,-100.00,SW,231,11.0,13.0,40,0.00,,,0.00,0.000000,,2013-01-31 04:22:00,
2013-01-30 20:31:00,57.0,33.0,-100.00,SW,231,11.0,13.0,40,0.00,,,0.00,0.000000,,2013-01-31 04:31:00,
2013-01-30 20:41:00,57.0,33.0,-100.00,SW,231,11.0,13.0,40,0.00,,,0.00,0.000000,,2013-01-31 04:41:00,
2013-01-30 21:11:00,56.0,32.0,-100.00,SW,235,7.0,12.0,40,0.00,,,0.00,0.000000,,2013-01-31 05:11:00,
2013-01-30 21:22:00,56.0,32.0,-100.00,SW,235,7.0,12.0,40,0.00,,,0.00,0.000000,,2013-01-31 05:22:00,
2013-01-30 21:31:00,56.0,32.0,-100.00,SW,235,7.0,12.0,40,0.00,,,0.00,0.000000,,2013-01-31 05:31:00,
2013-01-30 21:41:00,56.0,32.0,-100.00,SW,235,7.0,12.0,40,0.00,,,0.00,0.000000,,2013-01-31 05:41:00,